Sunflower Gold — JD2460 — position and weather

sailwx.info

Track history (hours):
 
Tides and Currents Weather Stations Pressure Air Temp Water Temp Dewpoint Dewpoint Depression Visibility Wind Speed Wind Dir Waves Ship Positions

Sunflower Gold

Last reported at 2014-Oct-21 17:33 UTC. Time now 2014-Oct-22 00:12 UTC.
Position N 33°58' E 132°43'.

Length 166 m; draft 5.8 m.

Type: Passenger vessel. MMSI: 431000331.

Date/timePositionNaut miles runAvg speedWind from/ knotsBaromVisibWave heightAir tempDewpointWater temp
2014-Oct-21 17:33N 33°58' E 132°43'11318.1
2014-Oct-21 11:18N 34°35' E 134°52'1621.1
2014-Oct-21 10:33N 34°36' E 135°11'7 7.1
2014-Oct-21 09:32N 34°42' E 135°17'0 0.0
2014-Oct-21 08:26N 34°42' E 135°17'0 0.0
2014-Oct-21 07:20N 34°42' E 135°17'0 0.0
2014-Oct-21 06:32N 34°42' E 135°17'0 0.0
2014-Oct-21 05:20N 34°42' E 135°17'0 0.0
2014-Oct-21 04:32N 34°42' E 135°17'0 0.0
2014-Oct-21 03:32N 34°42' E 135°17'0 0.0
2014-Oct-21 02:32N 34°42' E 135°17'0 0.0
2014-Oct-21 01:26N 34°42' E 135°17'0 0.0
2014-Oct-21 00:26N 34°42' E 135°17'0 0.0
2014-Oct-20 23:32N 34°42' E 135°17'0 0.0
2014-Oct-20 22:32N 34°42' E 135°17'0 0.3
2014-Oct-20 21:33N 34°42' E 135°17'1414.2
2014-Oct-20 20:33N 34°36' E 135°01'8 0.2
2014-Oct-19 03:06N 34°35' E 134°52'1018.0
2014-Oct-19 02:33N 34°36' E 135°04'1211.6
2014-Oct-19 01:31N 34°42' E 135°17'0 0.0
2014-Oct-19 00:31N 34°42' E 135°17'0 0.0
2014-Oct-18 23:25N 34°42' E 135°17'1 1.1
2014-Oct-18 22:33N 34°41' E 135°18'1414.4
2014-Oct-18 21:33N 34°37' E 135°01'11716.6
2014-Oct-18 14:33N 34°01' E 132°47'3 0.1
2014-Oct-17 18:27N 34°00' E 132°44'11018.0
2014-Oct-17 12:21N 34°35' E 134°50'1518.5
2014-Oct-17 11:34N 34°36' E 135°08'9 9.4
2014-Oct-17 10:33N 34°42' E 135°17'0 0.0
2014-Oct-17 09:18N 34°42' E 135°17'0 0.0
2014-Oct-17 08:30N 34°42' E 135°17'0 0.0
2014-Oct-17 07:30N 34°42' E 135°17'0 0.0
2014-Oct-17 06:30N 34°42' E 135°17'0 0.0
2014-Oct-17 05:30N 34°42' E 135°17'0 0.0
2014-Oct-17 04:30N 34°42' E 135°17'0 0.0
2014-Oct-17 03:30N 34°42' E 135°17'0 0.0
2014-Oct-17 02:30N 34°42' E 135°17'0 0.0
2014-Oct-17 01:30N 34°42' E 135°17'0 0.0
2014-Oct-17 00:24N 34°42' E 135°17'0 0.0
2014-Oct-16 23:30N 34°42' E 135°17'0 0.0
2014-Oct-16 22:30N 34°42' E 135°17'0 0.0
2014-Oct-16 21:33N 34°42' E 135°17'1312.6
2014-Oct-16 20:33N 34°35' E 135°04'12918.1
2014-Oct-16 13:27N 33°53' E 132°37'11 0.6
2014-Oct-15 17:31N 34°02' E 132°46'10917.9
2014-Oct-15 11:28N 34°35' E 134°51'1718.4
2014-Oct-15 10:33N 34°36' E 135°11'7 7.3
2014-Oct-15 09:33N 34°42' E 135°17'0 0.0
2014-Oct-15 08:27N 34°42' E 135°17'0 0.0
2014-Oct-15 07:33N 34°42' E 135°17'0 0.0
2014-Oct-15 06:33N 34°42' E 135°17'0 0.0
2014-Oct-15 05:33N 34°42' E 135°17'0 0.0
2014-Oct-15 04:33N 34°42' E 135°17'0 0.0
2014-Oct-15 03:33N 34°42' E 135°17'0 0.0
2014-Oct-15 02:21N 34°42' E 135°17'0 0.0
2014-Oct-15 01:33N 34°42' E 135°17'0 0.0
2014-Oct-15 00:33N 34°42' E 135°17'0 0.0
2014-Oct-14 23:33N 34°42' E 135°17'0 0.0
2014-Oct-14 22:33N 34°42' E 135°17'0 0.0
2014-Oct-14 21:33N 34°42' E 135°17'1312.6
2014-Oct-14 20:33N 34°35' E 135°04'11618.5
2014-Oct-14 14:17N 34°04' E 132°49'  
2014-Oct-11 18:32N 33°57' E 132°41'  
Track history (hours):
 
Tides and Currents Weather Stations Pressure Air Temp Water Temp Dewpoint Dewpoint Depression Visibility Wind Speed Wind Dir Waves Ship Positions

Sunflower Gold

Last reported at 2014-Oct-21 17:33 UTC. Time now 2014-Oct-22 00:12 UTC.
Position N 33°58' E 132°43'.

Length 166 m; draft 5.8 m.

Type: Passenger vessel. MMSI: 431000331.

Date/timePositionNaut miles runAvg speedWind from/ knotsBaromVisibWave heightAir tempDewpointWater temp
2014-Oct-21 17:33N 33°58' E 132°43'11318.1
2014-Oct-21 11:18N 34°35' E 134°52'1621.1
2014-Oct-21 10:33N 34°36' E 135°11'7 7.1
2014-Oct-21 09:32N 34°42' E 135°17'0 0.0
2014-Oct-21 08:26N 34°42' E 135°17'0 0.0
2014-Oct-21 07:20N 34°42' E 135°17'0 0.0
2014-Oct-21 06:32N 34°42' E 135°17'0 0.0
2014-Oct-21 05:20N 34°42' E 135°17'0 0.0
2014-Oct-21 04:32N 34°42' E 135°17'0 0.0
2014-Oct-21 03:32N 34°42' E 135°17'0 0.0
2014-Oct-21 02:32N 34°42' E 135°17'0 0.0
2014-Oct-21 01:26N 34°42' E 135°17'0 0.0
2014-Oct-21 00:26N 34°42' E 135°17'0 0.0
2014-Oct-20 23:32N 34°42' E 135°17'0 0.0
2014-Oct-20 22:32N 34°42' E 135°17'0 0.3
2014-Oct-20 21:33N 34°42' E 135°17'1414.2
2014-Oct-20 20:33N 34°36' E 135°01'8 0.2
2014-Oct-19 03:06N 34°35' E 134°52'1018.0
2014-Oct-19 02:33N 34°36' E 135°04'1211.6
2014-Oct-19 01:31N 34°42' E 135°17'0 0.0
2014-Oct-19 00:31N 34°42' E 135°17'0 0.0
2014-Oct-18 23:25N 34°42' E 135°17'1 1.1
2014-Oct-18 22:33N 34°41' E 135°18'1414.4
2014-Oct-18 21:33N 34°37' E 135°01'11716.6
2014-Oct-18 14:33N 34°01' E 132°47'3 0.1
2014-Oct-17 18:27N 34°00' E 132°44'11018.0
2014-Oct-17 12:21N 34°35' E 134°50'1518.5
2014-Oct-17 11:34N 34°36' E 135°08'9 9.4
2014-Oct-17 10:33N 34°42' E 135°17'0 0.0
2014-Oct-17 09:18N 34°42' E 135°17'0 0.0
2014-Oct-17 08:30N 34°42' E 135°17'0 0.0
2014-Oct-17 07:30N 34°42' E 135°17'0 0.0
2014-Oct-17 06:30N 34°42' E 135°17'0 0.0
2014-Oct-17 05:30N 34°42' E 135°17'0 0.0
2014-Oct-17 04:30N 34°42' E 135°17'0 0.0
2014-Oct-17 03:30N 34°42' E 135°17'0 0.0
2014-Oct-17 02:30N 34°42' E 135°17'0 0.0
2014-Oct-17 01:30N 34°42' E 135°17'0 0.0
2014-Oct-17 00:24N 34°42' E 135°17'0 0.0
2014-Oct-16 23:30N 34°42' E 135°17'0 0.0
2014-Oct-16 22:30N 34°42' E 135°17'0 0.0
2014-Oct-16 21:33N 34°42' E 135°17'1312.6
2014-Oct-16 20:33N 34°35' E 135°04'12918.1
2014-Oct-16 13:27N 33°53' E 132°37'11 0.6
2014-Oct-15 17:31N 34°02' E 132°46'10917.9
2014-Oct-15 11:28N 34°35' E 134°51'1718.4
2014-Oct-15 10:33N 34°36' E 135°11'7 7.3
2014-Oct-15 09:33N 34°42' E 135°17'0 0.0
2014-Oct-15 08:27N 34°42' E 135°17'0 0.0
2014-Oct-15 07:33N 34°42' E 135°17'0 0.0
2014-Oct-15 06:33N 34°42' E 135°17'0 0.0
2014-Oct-15 05:33N 34°42' E 135°17'0 0.0
2014-Oct-15 04:33N 34°42' E 135°17'0 0.0
2014-Oct-15 03:33N 34°42' E 135°17'0 0.0
2014-Oct-15 02:21N 34°42' E 135°17'0 0.0
2014-Oct-15 01:33N 34°42' E 135°17'0 0.0
2014-Oct-15 00:33N 34°42' E 135°17'0 0.0
2014-Oct-14 23:33N 34°42' E 135°17'0 0.0
2014-Oct-14 22:33N 34°42' E 135°17'0 0.0
2014-Oct-14 21:33N 34°42' E 135°17'1312.6
2014-Oct-14 20:33N 34°35' E 135°04'11618.5
2014-Oct-14 14:17N 34°04' E 132°49'  
2014-Oct-11 18:32N 33°57' E 132°41'  

Dump ship's entire track history